Terminal Aerodrome Forecast
Issued by NWS Shreveport, LA

Home | Current Version | Previous Version | Text Only | Print | Product List | Glossary On
Versions: 1 2 3 4 5 6 7 8 9 10 11 12 13
956
FTUS44 KSHV 260520
TAFTYR
TAF
KTYR 260520Z 2606/2706 13005KT P6SM SCT250
     FM261400 14004KT P6SM SCT025 BKN250
     FM261600 15006KT P6SM SCT035 SCT050 BKN250
     FM270000 10005KT P6SM SCT060 BKN250=

USA.gov is the U.S. government's official web portal to all federal, state and local government web resources and services.